createdAt,value
2022-09-23T00:01:57.693Z,77.12
2022-09-23T00:08:17.562Z,76.9
2022-09-23T00:14:40.605Z,76.84
2022-09-23T00:21:00.586Z,77.12
2022-09-23T00:27:23.570Z,77.19
2022-09-23T00:33:43.661Z,77.14
2022-09-23T00:40:06.635Z,77.36
2022-09-23T00:46:26.642Z,77.69
2022-09-23T00:52:49.624Z,77.49
2022-09-23T00:59:09.578Z,77.49
2022-09-23T01:05:32.579Z,77.33
2022-09-23T01:11:52.597Z,77.31
2022-09-23T01:18:15.596Z,77.37
2022-09-23T01:24:35.565Z,77.29
2022-09-23T01:30:58.632Z,77.18
2022-09-23T01:37:18.589Z,76.92
2022-09-23T01:43:41.610Z,77
2022-09-23T01:50:01.597Z,76.96
2022-09-23T01:56:24.610Z,77.02
2022-09-23T02:02:44.635Z,77.07
2022-09-23T02:09:07.624Z,76.84
2022-09-23T02:15:27.565Z,76.9
2022-09-23T02:21:50.589Z,77.14
2022-09-23T02:28:10.608Z,77.11
2022-09-23T02:34:33.571Z,77.31
2022-09-23T02:40:53.623Z,77.41
2022-09-23T02:47:16.606Z,77.59
2022-09-23T02:53:36.588Z,77.51
2022-09-23T02:59:59.579Z,77.63
2022-09-23T03:06:19.604Z,77.85
2022-09-23T03:12:42.603Z,77.71
2022-09-23T03:19:02.607Z,77.82
2022-09-23T03:41:50.615Z,77.51
2022-09-23T03:48:13.582Z,77.63
2022-09-23T03:54:33.661Z,78.05
2022-09-23T04:00:56.650Z,78.32
2022-09-23T04:07:16.645Z,78.29
2022-09-23T04:13:39.598Z,78.4
2022-09-23T04:19:59.629Z,78.17
2022-09-23T04:26:23.583Z,78.58
2022-09-23T04:32:43.607Z,78.35
2022-09-23T04:39:06.801Z,78.25
2022-09-23T04:45:26.593Z,78.67
2022-09-23T04:51:49.643Z,78.41
2022-09-23T04:58:09.620Z,78.47
2022-09-23T05:04:32.581Z,78.45
2022-09-23T05:10:52.639Z,78.48
2022-09-23T05:17:15.588Z,78.39
2022-09-23T05:23:35.556Z,78.95
2022-09-23T05:29:58.614Z,78.83
2022-09-23T05:36:18.637Z,78.73
2022-09-23T05:42:41.617Z,78.75
2022-09-23T05:49:03.186Z,78.85
2022-09-23T05:55:24.616Z,79.13
2022-09-23T06:01:44.649Z,78.94
2022-09-23T06:08:07.583Z,78.69
2022-09-23T06:14:27.600Z,78.04
2022-09-23T06:20:50.585Z,77.85
2022-09-23T06:27:10.623Z,77.96
2022-09-23T06:33:36.929Z,77.49
2022-09-23T06:39:53.598Z,77.19
2022-09-23T06:46:16.640Z,76.42
2022-09-23T06:52:36.638Z,76.2
2022-09-23T06:58:59.601Z,75.72
2022-09-23T07:05:19.593Z,75.87
2022-09-23T07:11:42.637Z,75.71
2022-09-23T07:18:02.954Z,74.66
2022-09-23T07:24:25.601Z,74.44
2022-09-23T07:30:56.973Z,73.66
2022-09-23T07:37:08.578Z,72.09
2022-09-23T07:43:28.562Z,71.4
2022-09-23T07:49:51.642Z,70.27
2022-09-23T07:56:11.594Z,69.49
2022-09-23T08:02:34.655Z,69.52
2022-09-23T08:08:54.600Z,69.28
2022-09-23T08:15:17.608Z,67.18
2022-09-23T08:21:37.628Z,66.27
2022-09-23T08:28:00.596Z,65.49
2022-09-23T08:43:31.539Z,63.96
2022-09-23T08:49:51.548Z,63.87
2022-09-23T08:56:14.575Z,63.4
2022-09-23T09:02:34.627Z,62.56
2022-09-23T09:08:57.575Z,62.75
2022-09-23T09:15:17.580Z,61.76
2022-09-23T09:21:40.614Z,62.61
2022-09-23T09:28:00.589Z,62.34
2022-09-23T09:34:23.589Z,61.79
2022-09-23T09:40:43.635Z,63.01
2022-09-23T09:47:06.600Z,61.01
2022-09-23T09:53:26.506Z,60.26
2022-09-23T09:59:49.681Z,59.61
2022-09-23T10:06:09.520Z,58.2
2022-09-23T10:12:32.528Z,58.15
2022-09-23T10:18:52.565Z,57.39
2022-09-23T10:25:15.521Z,57.33
2022-09-23T10:31:35.514Z,55.8
2022-09-23T10:37:58.530Z,55.89
2022-09-23T10:44:18.504Z,54.92
2022-09-23T10:50:41.535Z,55.32
2022-09-23T10:57:01.537Z,53.55
2022-09-23T11:03:24.558Z,53.61
2022-09-23T11:09:44.527Z,51.61
2022-09-23T11:16:07.562Z,51.17
2022-09-23T11:22:27.544Z,50.13
2022-09-23T11:28:50.530Z,48.11
2022-09-23T11:35:10.580Z,46.86
2022-09-23T11:41:33.723Z,45.62
2022-09-23T11:47:53.530Z,46.07
2022-09-23T11:54:20.344Z,43.66
2022-09-23T12:00:36.525Z,43.8
2022-09-23T12:06:59.560Z,43.8
2022-09-23T12:13:19.585Z,44.59
2022-09-23T12:19:42.547Z,45.48
2022-09-23T12:26:02.551Z,43.1
2022-09-23T12:32:25.565Z,43.67
2022-09-23T12:38:45.572Z,43.65
2022-09-23T12:45:08.567Z,44.28
2022-09-23T12:51:28.597Z,46.17
2022-09-23T12:57:51.573Z,43.7
2022-09-23T13:04:11.538Z,45
2022-09-23T13:10:34.599Z,43.82
2022-09-23T13:16:54.615Z,45.59
2022-09-23T13:23:17.579Z,45.26
2022-09-23T13:29:37.596Z,45.72
2022-09-23T13:36:00.545Z,47.01
2022-09-23T13:42:20.572Z,45.49
2022-09-23T13:48:43.565Z,45.76
2022-09-23T13:55:03.569Z,46.05
2022-09-23T14:11:13.095Z,44.86
2022-09-23T14:17:32.546Z,48.62
2022-09-23T14:23:55.571Z,47.61
2022-09-23T14:30:15.579Z,47.72
2022-09-23T14:36:38.556Z,50.02
2022-09-23T14:42:58.602Z,54.52
2022-09-23T14:49:21.664Z,53.03
2022-09-23T14:55:41.690Z,55.36
2022-09-23T15:02:04.557Z,53.23
2022-09-23T15:08:24.588Z,51.38
2022-09-23T15:14:47.583Z,52.47
2022-09-23T15:21:07.557Z,54.44
2022-09-23T15:27:30.609Z,52.98
2022-09-23T15:33:50.561Z,53.67
2022-09-23T15:40:13.593Z,54.76
2022-09-23T15:46:33.629Z,54.5
2022-09-23T15:52:56.567Z,52.51
2022-09-23T15:59:16.587Z,51.91
2022-09-23T16:05:39.581Z,53.34
2022-09-23T16:11:59.625Z,54.53
2022-09-23T16:18:22.559Z,55.08
2022-09-23T16:24:42.765Z,55.33
2022-09-23T16:31:05.740Z,57.34
2022-09-23T16:37:25.594Z,58.3
2022-09-23T16:43:48.627Z,58.95
2022-09-23T16:50:08.578Z,60.58
2022-09-23T16:56:31.564Z,62.35
2022-09-23T17:02:51.614Z,63.47
2022-09-23T17:09:14.564Z,64.75
2022-09-23T17:15:34.600Z,64.27
2022-09-23T17:21:57.622Z,65.79
2022-09-23T17:28:17.559Z,65.99
2022-09-23T17:34:40.598Z,66.4
2022-09-23T17:41:00.588Z,67.67
2022-09-23T17:47:23.617Z,67.09
2022-09-23T17:53:43.561Z,67.81
2022-09-23T18:00:06.615Z,68.89
2022-09-23T18:06:26.599Z,69.49
2022-09-23T18:12:49.563Z,68.52
2022-09-23T18:19:09.694Z,68.63
2022-09-23T18:25:39.414Z,69.39
2022-09-23T18:31:52.677Z,70.35
2022-09-23T18:38:15.684Z,70.9
2022-09-23T18:44:35.580Z,71.25
2022-09-23T18:50:58.597Z,71.99
2022-09-23T18:57:18.604Z,73.48
2022-09-23T19:03:41.583Z,73.36
2022-09-23T19:10:01.567Z,73.69
2022-09-23T19:26:11.645Z,74.83
2022-09-23T19:32:31.566Z,75.55
2022-09-23T19:38:54.596Z,75.66
2022-09-23T19:45:14.583Z,75.94
2022-09-23T19:51:37.582Z,76.13
2022-09-23T19:57:57.560Z,76.38
2022-09-23T20:04:20.592Z,76.72
2022-09-23T20:10:40.607Z,76.9
2022-09-23T20:17:03.574Z,77.38
2022-09-23T20:23:23.607Z,77.48
2022-09-23T20:29:46.560Z,77.26
2022-09-23T20:36:06.557Z,77.49
2022-09-23T20:42:29.596Z,77.43
2022-09-23T20:48:49.557Z,77.91
2022-09-23T20:55:12.810Z,77.93
2022-09-23T21:01:32.587Z,77.97
2022-09-23T21:07:57.637Z,78
2022-09-23T21:14:15.588Z,78.85
2022-09-23T21:20:38.604Z,78.64
2022-09-23T21:26:58.605Z,78.91
2022-09-23T21:33:21.571Z,79.28
2022-09-23T21:39:41.625Z,79.35
2022-09-23T21:46:04.581Z,80.13
2022-09-23T21:52:24.561Z,80.38
2022-09-23T21:58:47.591Z,80.24
2022-09-23T22:21:45.594Z,80.04
2022-09-23T22:28:05.550Z,79.94
2022-09-23T22:34:48.331Z,80.66
2022-09-23T22:40:48.728Z,81.6
2022-09-23T22:47:11.555Z,81.91
2022-09-23T22:53:31.604Z,81.62
2022-09-23T22:59:54.648Z,81.75
2022-09-23T23:06:14.649Z,81.8
2022-09-23T23:12:37.588Z,81.9
2022-09-23T23:18:57.630Z,81.76
2022-09-23T23:25:20.592Z,82.11
2022-09-23T23:31:40.694Z,82.11
2022-09-23T23:38:03.602Z,82.1
2022-09-23T23:44:23.600Z,81.95
2022-09-23T23:50:46.637Z,81.69
2022-09-23T23:57:06.589Z,81.65
